createdAt,value
2023-03-10T00:02:11.201Z,576.00
2023-03-10T00:06:11.271Z,572.00
2023-03-10T00:10:11.404Z,578.00
2023-03-10T00:14:11.493Z,574.00
2023-03-10T00:18:11.654Z,574.00
2023-03-10T00:22:11.796Z,574.00
2023-03-10T00:26:12.018Z,573.00
2023-03-10T00:30:12.202Z,575.00
2023-03-10T00:34:12.343Z,575.00
2023-03-10T00:38:12.571Z,575.00
2023-03-10T00:42:12.706Z,580.00
2023-03-10T00:46:12.943Z,574.00
2023-03-10T00:50:13.007Z,573.00
2023-03-10T00:54:13.135Z,577.00
2023-03-10T00:58:13.277Z,575.00
2023-03-10T01:02:13.361Z,575.00
2023-03-10T01:06:13.413Z,573.00
2023-03-10T01:10:13.554Z,573.00
2023-03-10T01:14:13.577Z,569.00
2023-03-10T01:18:13.603Z,570.00
2023-03-10T01:22:13.597Z,570.00
2023-03-10T01:26:13.508Z,572.00
2023-03-10T01:30:13.487Z,568.00
2023-03-10T01:34:13.464Z,566.00
2023-03-10T01:38:13.444Z,564.00
2023-03-10T01:42:13.418Z,560.00
2023-03-10T01:46:13.365Z,562.00
2023-03-10T01:50:13.308Z,567.00
2023-03-10T01:54:13.295Z,564.00
2023-03-10T01:58:13.224Z,562.00
2023-03-10T02:02:13.290Z,564.00
2023-03-10T02:06:14.441Z,566.00
2023-03-10T02:10:13.095Z,566.00
2023-03-10T02:14:13.163Z,563.00
2023-03-10T02:18:13.075Z,563.00
2023-03-10T02:22:13.022Z,565.00
2023-03-10T02:26:12.940Z,560.00
2023-03-10T02:30:12.934Z,558.00
2023-03-10T02:34:12.911Z,560.00
2023-03-10T02:38:12.888Z,559.00
2023-03-10T02:42:12.884Z,559.00
2023-03-10T02:46:12.893Z,560.00
2023-03-10T02:50:12.743Z,560.00
2023-03-10T02:54:12.685Z,556.00
2023-03-10T02:58:12.655Z,552.00
2023-03-10T03:02:12.942Z,556.00
2023-03-10T03:06:12.604Z,554.00
2023-03-10T03:10:12.527Z,552.00
2023-03-10T03:14:12.502Z,553.00
2023-03-10T03:18:12.485Z,552.00
2023-03-10T03:22:12.455Z,553.00
2023-03-10T03:26:12.391Z,548.00
2023-03-10T03:30:12.390Z,550.00
2023-03-10T03:34:12.336Z,549.00
2023-03-10T03:38:12.260Z,550.00
2023-03-10T03:42:12.264Z,550.00
2023-03-10T03:46:12.276Z,554.00
2023-03-10T03:50:12.201Z,555.00
2023-03-10T03:54:12.156Z,557.00
2023-03-10T03:58:12.090Z,559.00
2023-03-10T04:02:12.087Z,557.00
2023-03-10T04:06:12.508Z,556.00
2023-03-10T04:10:12.026Z,553.00
2023-03-10T04:14:11.995Z,553.00
2023-03-10T04:18:11.932Z,547.00
2023-03-10T04:22:11.892Z,549.00
2023-03-10T04:26:11.876Z,551.00
2023-03-10T04:30:11.869Z,550.00
2023-03-10T04:34:11.832Z,548.00
2023-03-10T04:38:11.819Z,552.00
2023-03-10T04:42:11.796Z,550.00
2023-03-10T04:46:11.807Z,553.00
2023-03-10T04:50:11.715Z,556.00
2023-03-10T04:54:11.656Z,553.00
2023-03-10T04:58:11.630Z,547.00
2023-03-10T05:02:11.638Z,550.00
2023-03-10T05:06:11.536Z,543.00
2023-03-10T05:10:11.558Z,544.00
2023-03-10T05:14:11.483Z,542.00
2023-03-10T05:18:11.448Z,539.00
2023-03-10T05:22:11.440Z,534.00
2023-03-10T05:26:11.402Z,534.00
2023-03-10T05:30:11.322Z,534.00
2023-03-10T05:34:11.559Z,533.00
2023-03-10T05:38:11.233Z,532.00
2023-03-10T05:42:11.206Z,537.00
2023-03-10T05:46:11.228Z,534.00
2023-03-10T05:50:11.117Z,537.00
2023-03-10T05:54:11.188Z,532.00
2023-03-10T05:58:11.081Z,532.00
2023-03-10T06:02:11.076Z,529.00
2023-03-10T06:06:11.512Z,528.00
2023-03-10T06:10:11.047Z,526.00
2023-03-10T06:14:11.274Z,524.00
2023-03-10T06:18:11.298Z,523.00
2023-03-10T06:22:11.378Z,521.00
2023-03-10T06:26:11.458Z,518.00
2023-03-10T06:30:11.529Z,520.00
2023-03-10T06:34:11.611Z,524.00
2023-03-10T06:38:12.564Z,527.00
2023-03-10T06:42:12.086Z,568.00
2023-03-10T06:46:12.164Z,659.00
2023-03-10T06:50:12.186Z,692.00
2023-03-10T06:54:12.171Z,806.00
2023-03-10T06:58:12.158Z,890.00
2023-03-10T07:02:12.618Z,947.00
2023-03-10T07:06:12.042Z,986.00
2023-03-10T07:10:12.004Z,1016.00
2023-03-10T07:14:11.988Z,1077.00
2023-03-10T07:18:11.882Z,1126.00
2023-03-10T07:22:11.940Z,1177.00
2023-03-10T07:26:11.865Z,1222.00
2023-03-10T07:30:11.880Z,1303.00
2023-03-10T07:34:11.796Z,1371.00
2023-03-10T07:38:11.687Z,1396.00
2023-03-10T07:42:11.672Z,1423.00
2023-03-10T07:46:11.855Z,949.00
2023-03-10T07:50:11.616Z,1081.00
2023-03-10T07:54:11.600Z,1284.00
2023-03-10T07:58:11.636Z,1341.00
2023-03-10T08:02:12.081Z,1357.00
2023-03-10T08:06:11.800Z,1399.00
2023-03-10T08:10:11.662Z,1448.00
2023-03-10T08:14:11.701Z,1511.00
2023-03-10T08:18:11.649Z,1556.00
2023-03-10T08:22:11.621Z,1592.00
2023-03-10T08:26:11.556Z,1641.00
2023-03-10T08:30:11.548Z,1665.00
2023-03-10T08:34:11.538Z,1341.00
2023-03-10T08:38:11.436Z,880.00
2023-03-10T08:42:11.609Z,861.00
2023-03-10T08:46:11.471Z,955.00
2023-03-10T08:50:11.324Z,1112.00
2023-03-10T08:54:11.347Z,1195.00
2023-03-10T08:58:11.253Z,1254.00
2023-03-10T09:02:11.261Z,1310.00
2023-03-10T09:06:11.237Z,1398.00
2023-03-10T09:10:11.368Z,1442.00
2023-03-10T09:14:11.455Z,1492.00
2023-03-10T09:18:11.646Z,1544.00
2023-03-10T09:22:12.469Z,1599.00
2023-03-10T09:26:12.187Z,1618.00
2023-03-10T09:30:12.349Z,1587.00
2023-03-10T09:34:12.482Z,1528.00
2023-03-10T09:38:12.615Z,1493.00
2023-03-10T09:42:13.328Z,1379.00
2023-03-10T09:46:13.077Z,1049.00
2023-03-10T09:50:13.065Z,889.00
2023-03-10T09:54:12.950Z,775.00
2023-03-10T09:58:12.908Z,711.00
2023-03-10T10:02:12.888Z,623.00
2023-03-10T10:06:12.877Z,615.00
2023-03-10T10:10:12.832Z,582.00
2023-03-10T10:14:15.894Z,551.00
2023-03-10T10:18:19.641Z,542.00
2023-03-10T10:22:13.688Z,543.00
2023-03-10T10:26:12.635Z,527.00
2023-03-10T10:30:12.572Z,507.00
2023-03-10T10:34:15.690Z,512.00
2023-03-10T10:38:12.559Z,582.00
2023-03-10T10:42:12.510Z,662.00
2023-03-10T10:46:12.575Z,694.00
2023-03-10T10:50:12.468Z,729.00
2023-03-10T10:54:12.432Z,743.00
2023-03-10T10:58:12.358Z,701.00
2023-03-10T11:02:12.425Z,819.00
2023-03-10T11:06:12.315Z,870.00
2023-03-10T11:10:12.296Z,938.00
2023-03-10T11:14:12.296Z,988.00
2023-03-10T11:18:12.472Z,1044.00
2023-03-10T11:22:12.619Z,1120.00
2023-03-10T11:26:15.014Z,1179.00
2023-03-10T11:30:13.232Z,1178.00
2023-03-10T11:34:12.829Z,1211.00
2023-03-10T11:38:12.896Z,1234.00
2023-03-10T11:42:13.000Z,932.00
2023-03-10T11:46:13.370Z,813.00
2023-03-10T11:50:13.225Z,918.00
2023-03-10T11:54:13.676Z,958.00
2023-03-10T11:58:13.184Z,960.00
2023-03-10T12:02:13.097Z,1015.00
2023-03-10T12:06:13.035Z,1024.00
2023-03-10T12:10:12.986Z,1023.00
2023-03-10T12:14:12.913Z,1026.00
2023-03-10T12:18:13.269Z,1004.00
2023-03-10T12:22:12.881Z,980.00
2023-03-10T12:26:12.856Z,781.00
2023-03-10T12:30:12.816Z,833.00
2023-03-10T12:34:13.048Z,850.00
2023-03-10T12:38:13.082Z,845.00
2023-03-10T12:42:13.269Z,849.00
2023-03-10T12:46:13.404Z,856.00
2023-03-10T12:50:13.552Z,847.00
2023-03-10T12:54:13.664Z,840.00
2023-03-10T12:58:13.676Z,838.00
2023-03-10T13:02:13.747Z,837.00
2023-03-10T13:06:13.776Z,833.00
2023-03-10T13:10:13.856Z,825.00
2023-03-10T13:14:13.855Z,820.00
2023-03-10T13:18:13.870Z,813.00
2023-03-10T13:22:13.897Z,813.00
2023-03-10T13:26:13.920Z,812.00
2023-03-10T13:30:13.939Z,806.00
2023-03-10T13:34:13.986Z,809.00
2023-03-10T13:38:14.011Z,809.00
2023-03-10T13:42:14.033Z,808.00
2023-03-10T13:46:14.102Z,805.00
2023-03-10T13:50:14.096Z,790.00
2023-03-10T13:54:14.108Z,790.00
2023-03-10T13:58:14.130Z,782.00
2023-03-10T14:02:14.174Z,776.00
2023-03-10T14:06:14.188Z,770.00
2023-03-10T14:10:14.269Z,768.00
2023-03-10T14:14:14.311Z,771.00
2023-03-10T14:18:14.381Z,777.00
2023-03-10T14:22:14.450Z,780.00
2023-03-10T14:26:14.518Z,781.00
2023-03-10T14:30:14.619Z,776.00
2023-03-10T14:34:14.640Z,773.00
2023-03-10T14:38:14.712Z,769.00
2023-03-10T14:42:14.797Z,772.00
2023-03-10T14:46:15.349Z,774.00
2023-03-10T14:50:14.897Z,770.00
2023-03-10T14:54:14.987Z,770.00
2023-03-10T14:58:15.090Z,769.00
2023-03-10T15:02:15.148Z,771.00
2023-03-10T15:06:15.205Z,766.00
2023-03-10T15:10:15.344Z,761.00
2023-03-10T15:14:15.442Z,756.00
2023-03-10T15:18:15.505Z,759.00
2023-03-10T15:22:15.584Z,746.00
2023-03-10T15:26:15.644Z,738.00
2023-03-10T15:30:15.784Z,732.00
2023-03-10T15:34:15.839Z,728.00
2023-03-10T15:38:15.933Z,720.00
2023-03-10T15:42:16.034Z,718.00
2023-03-10T15:46:16.137Z,711.00
2023-03-10T15:50:16.284Z,706.00
2023-03-10T15:54:16.357Z,704.00
2023-03-10T15:58:16.352Z,697.00
2023-03-10T16:02:16.419Z,686.00
2023-03-10T16:06:16.296Z,682.00
2023-03-10T16:10:16.257Z,679.00
2023-03-10T16:14:16.190Z,670.00
2023-03-10T16:18:16.167Z,677.00
2023-03-10T16:22:16.129Z,674.00
2023-03-10T16:26:16.123Z,675.00
2023-03-10T16:30:16.244Z,672.00
2023-03-10T16:34:16.008Z,676.00
2023-03-10T16:38:16.203Z,676.00
2023-03-10T16:42:16.345Z,671.00
2023-03-10T16:46:16.492Z,670.00
2023-03-10T16:50:16.649Z,664.00
2023-03-10T16:54:16.786Z,656.00
2023-03-10T16:58:16.964Z,655.00
2023-03-10T17:02:17.110Z,652.00
2023-03-10T17:06:17.222Z,647.00
2023-03-10T17:10:17.181Z,632.00
2023-03-10T17:14:17.183Z,623.00
2023-03-10T17:21:01.235Z,625.00
2023-03-10T17:25:01.202Z,618.00
2023-03-10T17:29:01.143Z,615.00
2023-03-10T17:33:01.672Z,611.00
2023-03-10T17:37:01.607Z,604.00
2023-03-10T17:41:01.565Z,606.00
2023-03-10T17:45:01.549Z,605.00
2023-03-10T17:49:01.528Z,604.00
2023-03-10T17:53:01.492Z,598.00
2023-03-10T17:57:01.427Z,593.00
2023-03-10T18:01:01.408Z,585.00
2023-03-10T18:05:01.382Z,589.00
2023-03-10T18:09:01.413Z,582.00
2023-03-10T18:13:01.584Z,581.00
2023-03-10T18:17:01.669Z,583.00
2023-03-10T18:21:01.899Z,582.00
2023-03-10T18:25:01.881Z,577.00
2023-03-10T18:29:01.891Z,576.00
2023-03-10T18:33:01.792Z,570.00
2023-03-10T18:37:01.762Z,568.00
2023-03-10T18:41:01.668Z,560.00
2023-03-10T18:45:01.661Z,558.00
2023-03-10T18:49:01.639Z,558.00
2023-03-10T18:53:01.605Z,555.00
2023-03-10T18:57:01.535Z,546.00
2023-03-10T19:01:01.508Z,549.00
2023-03-10T19:05:01.632Z,545.00
2023-03-10T19:09:01.617Z,539.00
2023-03-10T19:13:01.588Z,539.00
2023-03-10T19:17:01.562Z,540.00
2023-03-10T19:21:01.504Z,537.00
2023-03-10T19:25:01.470Z,543.00
2023-03-10T19:29:01.449Z,544.00
2023-03-10T19:33:01.412Z,538.00
2023-03-10T19:37:01.341Z,537.00
2023-03-10T19:41:01.317Z,538.00
2023-03-10T19:45:01.349Z,534.00
2023-03-10T19:49:01.325Z,527.00
2023-03-10T19:53:01.236Z,523.00
2023-03-10T19:57:01.234Z,520.00
2023-03-10T20:01:01.229Z,520.00
2023-03-10T20:05:01.141Z,517.00
2023-03-10T20:09:01.069Z,514.00
2023-03-10T20:13:01.065Z,514.00
2023-03-10T20:17:01.056Z,513.00
2023-03-10T20:21:01.025Z,514.00
2023-03-10T20:25:01.153Z,515.00
2023-03-10T20:29:01.881Z,508.00
2023-03-10T20:33:01.111Z,508.00
2023-03-10T20:37:01.089Z,509.00
2023-03-10T20:41:01.016Z,504.00
2023-03-10T20:45:00.995Z,503.00
2023-03-10T20:49:00.969Z,498.00
2023-03-10T20:53:00.928Z,503.00
2023-03-10T20:57:00.919Z,504.00
2023-03-10T21:01:01.106Z,499.00
2023-03-10T21:05:01.250Z,499.00
2023-03-10T21:09:01.414Z,505.00
2023-03-10T21:13:01.328Z,506.00
2023-03-10T21:17:01.350Z,503.00
2023-03-10T21:21:01.323Z,497.00
2023-03-10T21:25:01.264Z,502.00
2023-03-10T21:29:01.538Z,505.00
2023-03-10T21:33:01.210Z,504.00
2023-03-10T21:37:01.149Z,505.00
2023-03-10T21:41:01.126Z,503.00
2023-03-10T21:45:01.151Z,504.00
2023-03-10T21:49:01.029Z,503.00
2023-03-10T21:53:01.193Z,503.00
2023-03-10T21:57:01.023Z,505.00
2023-03-10T22:01:00.881Z,506.00
2023-03-10T22:05:00.928Z,506.00
2023-03-10T22:09:00.836Z,500.00
2023-03-10T22:13:00.874Z,502.00
2023-03-10T22:17:00.789Z,499.00
2023-03-10T22:21:00.786Z,496.00
2023-03-10T22:25:00.717Z,495.00
2023-03-10T22:29:00.722Z,494.00
2023-03-10T22:33:00.594Z,496.00
2023-03-10T22:37:00.560Z,495.00
2023-03-10T22:41:00.607Z,494.00
2023-03-10T22:45:00.470Z,496.00
2023-03-10T22:49:03.565Z,495.00
2023-03-10T22:53:00.412Z,493.00
2023-03-10T22:57:00.374Z,495.00
2023-03-10T23:01:01.043Z,492.00
2023-03-10T23:05:00.305Z,496.00
2023-03-10T23:09:00.282Z,495.00
2023-03-10T23:13:00.306Z,492.00
2023-03-10T23:17:00.177Z,495.00
2023-03-10T23:21:00.146Z,494.00
2023-03-10T23:25:00.137Z,498.00
2023-03-10T23:29:00.069Z,496.00
2023-03-10T23:33:00.023Z,501.00
2023-03-10T23:37:00.015Z,495.00
2023-03-10T23:40:59.979Z,495.00
2023-03-10T23:44:59.912Z,494.00
2023-03-10T23:49:00.856Z,497.00
2023-03-10T23:52:59.856Z,494.00
2023-03-10T23:56:59.837Z,496.00
